sensor_id;sensor_type;location;lat;lon;timestamp;P1;durP1;ratioP1;P2;durP2;ratioP2
19585;SDS011;9939;49.246;9.106;2023-12-20T00:02:17;16.73;;;9.63;;
19585;SDS011;9939;49.246;9.106;2023-12-20T00:04:44;18.53;;;10.10;;
19585;SDS011;9939;49.246;9.106;2023-12-20T00:07:11;18.63;;;10.50;;
19585;SDS011;9939;49.246;9.106;2023-12-20T00:09:38;18.60;;;10.47;;
19585;SDS011;9939;49.246;9.106;2023-12-20T00:12:05;18.10;;;9.73;;
19585;SDS011;9939;49.246;9.106;2023-12-20T00:14:33;15.53;;;9.87;;
19585;SDS011;9939;49.246;9.106;2023-12-20T00:17:00;17.70;;;10.90;;
19585;SDS011;9939;49.246;9.106;2023-12-20T00:19:27;17.53;;;10.13;;
19585;SDS011;9939;49.246;9.106;2023-12-20T00:21:54;18.87;;;9.87;;
19585;SDS011;9939;49.246;9.106;2023-12-20T00:24:21;18.03;;;10.20;;
19585;SDS011;9939;49.246;9.106;2023-12-20T00:26:48;19.63;;;10.43;;
19585;SDS011;9939;49.246;9.106;2023-12-20T00:29:15;18.67;;;11.07;;
19585;SDS011;9939;49.246;9.106;2023-12-20T00:31:42;19.23;;;10.43;;
19585;SDS011;9939;49.246;9.106;2023-12-20T00:34:09;18.13;;;11.20;;
19585;SDS011;9939;49.246;9.106;2023-12-20T00:36:36;19.20;;;11.20;;
19585;SDS011;9939;49.246;9.106;2023-12-20T00:39:03;19.33;;;10.50;;
19585;SDS011;9939;49.246;9.106;2023-12-20T00:41:30;16.80;;;10.50;;
19585;SDS011;9939;49.246;9.106;2023-12-20T00:43:58;19.87;;;10.47;;
19585;SDS011;9939;49.246;9.106;2023-12-20T00:46:25;16.50;;;9.80;;
19585;SDS011;9939;49.246;9.106;2023-12-20T00:48:52;19.90;;;10.80;;
19585;SDS011;9939;49.246;9.106;2023-12-20T00:51:19;17.53;;;9.80;;
19585;SDS011;9939;49.246;9.106;2023-12-20T00:53:46;18.13;;;10.53;;
19585;SDS011;9939;49.246;9.106;2023-12-20T00:56:16;19.60;;;10.93;;
19585;SDS011;9939;49.246;9.106;2023-12-20T00:58:43;17.00;;;9.83;;
19585;SDS011;9939;49.246;9.106;2023-12-20T01:01:10;16.03;;;9.50;;
19585;SDS011;9939;49.246;9.106;2023-12-20T01:03:37;17.90;;;10.87;;
19585;SDS011;9939;49.246;9.106;2023-12-20T01:06:05;19.67;;;11.00;;
19585;SDS011;9939;49.246;9.106;2023-12-20T01:08:32;19.17;;;10.57;;
19585;SDS011;9939;49.246;9.106;2023-12-20T01:11:03;15.73;;;9.37;;
19585;SDS011;9939;49.246;9.106;2023-12-20T01:13:31;17.97;;;9.80;;
19585;SDS011;9939;49.246;9.106;2023-12-20T01:15:58;17.17;;;9.57;;
19585;SDS011;9939;49.246;9.106;2023-12-20T01:18:26;15.87;;;9.47;;
19585;SDS011;9939;49.246;9.106;2023-12-20T01:20:53;18.43;;;9.53;;
19585;SDS011;9939;49.246;9.106;2023-12-20T01:23:20;21.30;;;10.47;;
19585;SDS011;9939;49.246;9.106;2023-12-20T01:25:47;16.93;;;9.97;;
19585;SDS011;9939;49.246;9.106;2023-12-20T01:28:15;16.27;;;9.33;;
19585;SDS011;9939;49.246;9.106;2023-12-20T01:30:42;16.40;;;9.67;;
19585;SDS011;9939;49.246;9.106;2023-12-20T01:33:09;18.47;;;9.13;;
19585;SDS011;9939;49.246;9.106;2023-12-20T01:35:36;14.33;;;8.20;;
19585;SDS011;9939;49.246;9.106;2023-12-20T01:38:03;13.30;;;7.77;;
19585;SDS011;9939;49.246;9.106;2023-12-20T01:40:30;13.80;;;7.37;;
19585;SDS011;9939;49.246;9.106;2023-12-20T01:42:58;11.50;;;7.13;;
19585;SDS011;9939;49.246;9.106;2023-12-20T01:45:27;13.13;;;7.30;;
19585;SDS011;9939;49.246;9.106;2023-12-20T01:47:54;14.30;;;6.30;;
19585;SDS011;9939;49.246;9.106;2023-12-20T01:50:24;11.47;;;6.60;;
19585;SDS011;9939;49.246;9.106;2023-12-20T01:52:52;11.23;;;6.40;;
19585;SDS011;9939;49.246;9.106;2023-12-20T01:55:24;11.77;;;6.17;;
19585;SDS011;9939;49.246;9.106;2023-12-20T01:57:53;11.13;;;6.10;;
19585;SDS011;9939;49.246;9.106;2023-12-20T02:00:21;10.20;;;5.90;;
19585;SDS011;9939;49.246;9.106;2023-12-20T02:02:53;10.53;;;5.90;;
19585;SDS011;9939;49.246;9.106;2023-12-20T02:05:27;11.70;;;6.43;;
19585;SDS011;9939;49.246;9.106;2023-12-20T02:07:59;10.13;;;5.73;;
19585;SDS011;9939;49.246;9.106;2023-12-20T02:10:26;9.57;;;5.60;;
19585;SDS011;9939;49.246;9.106;2023-12-20T02:12:54;10.47;;;5.23;;
19585;SDS011;9939;49.246;9.106;2023-12-20T02:15:21;9.37;;;5.17;;
19585;SDS011;9939;49.246;9.106;2023-12-20T02:17:48;10.03;;;5.00;;
19585;SDS011;9939;49.246;9.106;2023-12-20T02:20:16;7.33;;;4.40;;
19585;SDS011;9939;49.246;9.106;2023-12-20T02:22:43;9.47;;;4.50;;
19585;SDS011;9939;49.246;9.106;2023-12-20T02:25:10;9.03;;;4.73;;
19585;SDS011;9939;49.246;9.106;2023-12-20T02:27:37;9.27;;;4.47;;
19585;SDS011;9939;49.246;9.106;2023-12-20T02:30:06;8.40;;;4.57;;
19585;SDS011;9939;49.246;9.106;2023-12-20T02:32:33;8.67;;;4.77;;
19585;SDS011;9939;49.246;9.106;2023-12-20T02:35:00;9.27;;;4.70;;
19585;SDS011;9939;49.246;9.106;2023-12-20T02:37:27;8.60;;;4.77;;
19585;SDS011;9939;49.246;9.106;2023-12-20T02:39:54;6.87;;;4.27;;
19585;SDS011;9939;49.246;9.106;2023-12-20T02:42:21;8.83;;;4.97;;
19585;SDS011;9939;49.246;9.106;2023-12-20T02:44:48;8.60;;;4.07;;
19585;SDS011;9939;49.246;9.106;2023-12-20T02:47:15;8.07;;;4.53;;
19585;SDS011;9939;49.246;9.106;2023-12-20T02:49:42;9.97;;;5.10;;
19585;SDS011;9939;49.246;9.106;2023-12-20T02:52:09;9.67;;;5.10;;
19585;SDS011;9939;49.246;9.106;2023-12-20T02:54:36;8.40;;;4.63;;
19585;SDS011;9939;49.246;9.106;2023-12-20T02:57:04;9.17;;;5.00;;
19585;SDS011;9939;49.246;9.106;2023-12-20T02:59:31;9.33;;;4.83;;
19585;SDS011;9939;49.246;9.106;2023-12-20T03:01:58;10.27;;;5.40;;
19585;SDS011;9939;49.246;9.106;2023-12-20T03:04:25;8.70;;;4.93;;
19585;SDS011;9939;49.246;9.106;2023-12-20T03:06:52;8.93;;;5.87;;
19585;SDS011;9939;49.246;9.106;2023-12-20T03:09:19;9.57;;;5.53;;
19585;SDS011;9939;49.246;9.106;2023-12-20T03:11:46;8.70;;;4.70;;
19585;SDS011;9939;49.246;9.106;2023-12-20T03:14:13;10.50;;;5.80;;
19585;SDS011;9939;49.246;9.106;2023-12-20T03:16:40;8.90;;;5.20;;
19585;SDS011;9939;49.246;9.106;2023-12-20T03:19:07;9.77;;;5.07;;
19585;SDS011;9939;49.246;9.106;2023-12-20T03:21:34;8.07;;;5.07;;
19585;SDS011;9939;49.246;9.106;2023-12-20T03:24:01;9.30;;;5.13;;
19585;SDS011;9939;49.246;9.106;2023-12-20T03:26:29;8.07;;;4.90;;
19585;SDS011;9939;49.246;9.106;2023-12-20T03:28:55;8.40;;;4.77;;
19585;SDS011;9939;49.246;9.106;2023-12-20T03:31:23;8.97;;;4.97;;
19585;SDS011;9939;49.246;9.106;2023-12-20T03:33:50;8.13;;;4.73;;
19585;SDS011;9939;49.246;9.106;2023-12-20T03:36:19;9.17;;;5.10;;
19585;SDS011;9939;49.246;9.106;2023-12-20T03:38:46;8.33;;;4.87;;
19585;SDS011;9939;49.246;9.106;2023-12-20T03:41:13;8.50;;;4.83;;
19585;SDS011;9939;49.246;9.106;2023-12-20T03:43:40;8.97;;;4.80;;
19585;SDS011;9939;49.246;9.106;2023-12-20T03:46:08;9.20;;;5.03;;
19585;SDS011;9939;49.246;9.106;2023-12-20T03:48:36;8.87;;;4.90;;
19585;SDS011;9939;49.246;9.106;2023-12-20T03:51:03;11.47;;;5.57;;
19585;SDS011;9939;49.246;9.106;2023-12-20T03:53:30;9.80;;;5.00;;
19585;SDS011;9939;49.246;9.106;2023-12-20T03:55:56;7.93;;;4.70;;
19585;SDS011;9939;49.246;9.106;2023-12-20T03:58:23;8.53;;;4.97;;
19585;SDS011;9939;49.246;9.106;2023-12-20T04:00:50;8.87;;;5.20;;
19585;SDS011;9939;49.246;9.106;2023-12-20T04:03:18;8.70;;;5.30;;
19585;SDS011;9939;49.246;9.106;2023-12-20T04:05:45;10.10;;;6.10;;
19585;SDS011;9939;49.246;9.106;2023-12-20T04:08:12;9.80;;;5.53;;
19585;SDS011;9939;49.246;9.106;2023-12-20T04:10:39;9.60;;;5.70;;
19585;SDS011;9939;49.246;9.106;2023-12-20T04:13:06;8.33;;;5.40;;
19585;SDS011;9939;49.246;9.106;2023-12-20T04:15:33;8.90;;;5.30;;
19585;SDS011;9939;49.246;9.106;2023-12-20T04:18:00;9.33;;;4.83;;
19585;SDS011;9939;49.246;9.106;2023-12-20T04:20:28;8.63;;;4.87;;
19585;SDS011;9939;49.246;9.106;2023-12-20T04:22:55;10.63;;;6.00;;
19585;SDS011;9939;49.246;9.106;2023-12-20T04:25:21;10.07;;;5.80;;
19585;SDS011;9939;49.246;9.106;2023-12-20T04:27:49;11.23;;;6.20;;
19585;SDS011;9939;49.246;9.106;2023-12-20T04:30:16;9.17;;;6.00;;
19585;SDS011;9939;49.246;9.106;2023-12-20T04:32:43;9.93;;;5.90;;
19585;SDS011;9939;49.246;9.106;2023-12-20T04:35:10;10.60;;;5.97;;
19585;SDS011;9939;49.246;9.106;2023-12-20T04:37:37;12.10;;;6.40;;
19585;SDS011;9939;49.246;9.106;2023-12-20T04:40:04;10.10;;;6.47;;
19585;SDS011;9939;49.246;9.106;2023-12-20T04:42:32;10.33;;;6.50;;
19585;SDS011;9939;49.246;9.106;2023-12-20T04:44:59;10.53;;;6.93;;
19585;SDS011;9939;49.246;9.106;2023-12-20T04:47:26;12.13;;;6.93;;
19585;SDS011;9939;49.246;9.106;2023-12-20T04:49:53;12.43;;;7.67;;
19585;SDS011;9939;49.246;9.106;2023-12-20T04:52:20;13.00;;;7.37;;
19585;SDS011;9939;49.246;9.106;2023-12-20T04:54:48;11.70;;;7.30;;
19585;SDS011;9939;49.246;9.106;2023-12-20T04:57:15;12.27;;;7.33;;
19585;SDS011;9939;49.246;9.106;2023-12-20T04:59:42;13.00;;;7.47;;
19585;SDS011;9939;49.246;9.106;2023-12-20T05:02:09;11.90;;;7.47;;
19585;SDS011;9939;49.246;9.106;2023-12-20T05:04:36;12.20;;;7.77;;
19585;SDS011;9939;49.246;9.106;2023-12-20T05:07:03;13.00;;;8.53;;
19585;SDS011;9939;49.246;9.106;2023-12-20T05:09:31;13.40;;;8.10;;
19585;SDS011;9939;49.246;9.106;2023-12-20T05:11:59;13.33;;;8.37;;
19585;SDS011;9939;49.246;9.106;2023-12-20T05:14:27;12.60;;;7.90;;
19585;SDS011;9939;49.246;9.106;2023-12-20T05:16:54;12.20;;;8.37;;
19585;SDS011;9939;49.246;9.106;2023-12-20T05:19:21;12.80;;;8.13;;
19585;SDS011;9939;49.246;9.106;2023-12-20T05:21:48;14.10;;;8.50;;
19585;SDS011;9939;49.246;9.106;2023-12-20T05:24:16;11.53;;;7.97;;
19585;SDS011;9939;49.246;9.106;2023-12-20T05:26:42;12.03;;;7.97;;
19585;SDS011;9939;49.246;9.106;2023-12-20T05:29:10;11.70;;;8.20;;
19585;SDS011;9939;49.246;9.106;2023-12-20T05:31:37;11.57;;;7.60;;
19585;SDS011;9939;49.246;9.106;2023-12-20T05:34:04;14.23;;;7.87;;
19585;SDS011;9939;49.246;9.106;2023-12-20T05:36:31;13.50;;;8.00;;
19585;SDS011;9939;49.246;9.106;2023-12-20T05:38:58;11.33;;;7.47;;
19585;SDS011;9939;49.246;9.106;2023-12-20T05:41:25;13.13;;;7.23;;
19585;SDS011;9939;49.246;9.106;2023-12-20T05:43:52;10.87;;;7.50;;
19585;SDS011;9939;49.246;9.106;2023-12-20T05:46:19;10.97;;;6.93;;
19585;SDS011;9939;49.246;9.106;2023-12-20T05:48:47;11.03;;;7.37;;
19585;SDS011;9939;49.246;9.106;2023-12-20T05:51:15;13.20;;;7.10;;
19585;SDS011;9939;49.246;9.106;2023-12-20T05:53:42;14.40;;;8.00;;
19585;SDS011;9939;49.246;9.106;2023-12-20T05:56:10;11.83;;;7.70;;
19585;SDS011;9939;49.246;9.106;2023-12-20T05:58:38;11.13;;;7.10;;
19585;SDS011;9939;49.246;9.106;2023-12-20T06:01:06;11.43;;;8.03;;
19585;SDS011;9939;49.246;9.106;2023-12-20T06:03:35;12.17;;;7.97;;
19585;SDS011;9939;49.246;9.106;2023-12-20T06:06:08;12.80;;;8.87;;
19585;SDS011;9939;49.246;9.106;2023-12-20T06:08:42;15.47;;;9.57;;
19585;SDS011;9939;49.246;9.106;2023-12-20T06:11:10;16.70;;;9.67;;
19585;SDS011;9939;49.246;9.106;2023-12-20T06:13:37;14.00;;;9.03;;
19585;SDS011;9939;49.246;9.106;2023-12-20T06:16:05;14.07;;;8.77;;
19585;SDS011;9939;49.246;9.106;2023-12-20T06:18:33;14.80;;;8.97;;
19585;SDS011;9939;49.246;9.106;2023-12-20T06:21:01;14.90;;;9.83;;
19585;SDS011;9939;49.246;9.106;2023-12-20T06:23:28;14.40;;;9.10;;
19585;SDS011;9939;49.246;9.106;2023-12-20T06:25:55;13.27;;;8.90;;
19585;SDS011;9939;49.246;9.106;2023-12-20T06:28:23;15.73;;;9.73;;
19585;SDS011;9939;49.246;9.106;2023-12-20T06:30:50;13.77;;;9.27;;
19585;SDS011;9939;49.246;9.106;2023-12-20T06:33:19;15.50;;;8.87;;
19585;SDS011;9939;49.246;9.106;2023-12-20T06:35:48;12.90;;;9.30;;
19585;SDS011;9939;49.246;9.106;2023-12-20T06:38:15;14.13;;;9.87;;
19585;SDS011;9939;49.246;9.106;2023-12-20T06:40:44;14.40;;;9.83;;
19585;SDS011;9939;49.246;9.106;2023-12-20T06:43:12;12.90;;;9.03;;
19585;SDS011;9939;49.246;9.106;2023-12-20T06:45:57;14.40;;;9.43;;
19585;SDS011;9939;49.246;9.106;2023-12-20T06:48:26;13.57;;;8.90;;
19585;SDS011;9939;49.246;9.106;2023-12-20T06:50:53;15.10;;;9.07;;
19585;SDS011;9939;49.246;9.106;2023-12-20T06:53:20;13.27;;;8.93;;
19585;SDS011;9939;49.246;9.106;2023-12-20T06:55:47;13.20;;;8.17;;
19585;SDS011;9939;49.246;9.106;2023-12-20T06:58:14;12.97;;;8.67;;
19585;SDS011;9939;49.246;9.106;2023-12-20T07:00:41;16.13;;;10.47;;
19585;SDS011;9939;49.246;9.106;2023-12-20T07:03:09;17.80;;;11.23;;
19585;SDS011;9939;49.246;9.106;2023-12-20T07:05:36;17.90;;;10.67;;
19585;SDS011;9939;49.246;9.106;2023-12-20T07:08:03;17.47;;;10.93;;
19585;SDS011;9939;49.246;9.106;2023-12-20T07:10:30;17.23;;;9.93;;
19585;SDS011;9939;49.246;9.106;2023-12-20T07:12:57;17.30;;;8.07;;
19585;SDS011;9939;49.246;9.106;2023-12-20T07:15:25;13.43;;;8.57;;
19585;SDS011;9939;49.246;9.106;2023-12-20T07:17:53;13.83;;;8.63;;
19585;SDS011;9939;49.246;9.106;2023-12-20T07:20:20;14.90;;;7.87;;
19585;SDS011;9939;49.246;9.106;2023-12-20T07:22:48;13.43;;;7.83;;
19585;SDS011;9939;49.246;9.106;2023-12-20T07:25:15;14.40;;;7.97;;
19585;SDS011;9939;49.246;9.106;2023-12-20T07:27:42;14.23;;;8.10;;
19585;SDS011;9939;49.246;9.106;2023-12-20T07:30:11;15.43;;;7.53;;
19585;SDS011;9939;49.246;9.106;2023-12-20T07:32:38;15.10;;;8.53;;
19585;SDS011;9939;49.246;9.106;2023-12-20T07:35:05;14.87;;;9.33;;
19585;SDS011;9939;49.246;9.106;2023-12-20T07:37:33;15.30;;;8.27;;
19585;SDS011;9939;49.246;9.106;2023-12-20T07:40:00;14.70;;;8.30;;
19585;SDS011;9939;49.246;9.106;2023-12-20T07:42:27;14.97;;;8.83;;
19585;SDS011;9939;49.246;9.106;2023-12-20T07:44:54;14.20;;;8.53;;
19585;SDS011;9939;49.246;9.106;2023-12-20T07:47:21;17.73;;;8.57;;
19585;SDS011;9939;49.246;9.106;2023-12-20T07:49:49;15.00;;;8.10;;
19585;SDS011;9939;49.246;9.106;2023-12-20T07:52:18;12.73;;;7.80;;
19585;SDS011;9939;49.246;9.106;2023-12-20T07:54:45;14.57;;;7.23;;
19585;SDS011;9939;49.246;9.106;2023-12-20T07:57:12;16.23;;;7.93;;
19585;SDS011;9939;49.246;9.106;2023-12-20T07:59:39;13.60;;;7.03;;
19585;SDS011;9939;49.246;9.106;2023-12-20T08:02:07;14.10;;;7.40;;
19585;SDS011;9939;49.246;9.106;2023-12-20T08:04:34;14.27;;;7.43;;
19585;SDS011;9939;49.246;9.106;2023-12-20T08:07:01;19.73;;;7.30;;
19585;SDS011;9939;49.246;9.106;2023-12-20T08:09:28;15.60;;;8.53;;
19585;SDS011;9939;49.246;9.106;2023-12-20T08:11:55;13.50;;;8.07;;
19585;SDS011;9939;49.246;9.106;2023-12-20T08:14:22;15.87;;;7.90;;
19585;SDS011;9939;49.246;9.106;2023-12-20T08:16:49;15.03;;;9.10;;
19585;SDS011;9939;49.246;9.106;2023-12-20T08:19:16;13.53;;;8.60;;
19585;SDS011;9939;49.246;9.106;2023-12-20T08:21:43;17.57;;;9.73;;
19585;SDS011;9939;49.246;9.106;2023-12-20T08:24:10;15.43;;;9.40;;
19585;SDS011;9939;49.246;9.106;2023-12-20T08:26:38;14.87;;;9.40;;
19585;SDS011;9939;49.246;9.106;2023-12-20T08:29:05;14.37;;;9.33;;
19585;SDS011;9939;49.246;9.106;2023-12-20T08:31:32;13.97;;;9.00;;
19585;SDS011;9939;49.246;9.106;2023-12-20T08:33:59;15.93;;;9.63;;
19585;SDS011;9939;49.246;9.106;2023-12-20T08:36:26;14.73;;;9.83;;
19585;SDS011;9939;49.246;9.106;2023-12-20T08:38:53;15.63;;;10.20;;
19585;SDS011;9939;49.246;9.106;2023-12-20T08:41:21;21.73;;;9.90;;
19585;SDS011;9939;49.246;9.106;2023-12-20T08:43:48;16.43;;;10.37;;
19585;SDS011;9939;49.246;9.106;2023-12-20T08:46:15;12.37;;;8.37;;
19585;SDS011;9939;49.246;9.106;2023-12-20T08:48:43;13.50;;;9.03;;
19585;SDS011;9939;49.246;9.106;2023-12-20T08:51:10;14.67;;;8.80;;
19585;SDS011;9939;49.246;9.106;2023-12-20T08:53:37;10.97;;;7.00;;
19585;SDS011;9939;49.246;9.106;2023-12-20T08:56:04;10.40;;;5.50;;
19585;SDS011;9939;49.246;9.106;2023-12-20T08:58:32;10.83;;;4.97;;
19585;SDS011;9939;49.246;9.106;2023-12-20T09:01:00;6.80;;;3.97;;
19585;SDS011;9939;49.246;9.106;2023-12-20T09:03:27;5.20;;;3.30;;
19585;SDS011;9939;49.246;9.106;2023-12-20T09:05:54;6.40;;;3.23;;
19585;SDS011;9939;49.246;9.106;2023-12-20T09:08:21;5.50;;;3.03;;
19585;SDS011;9939;49.246;9.106;2023-12-20T09:10:48;4.47;;;2.40;;
19585;SDS011;9939;49.246;9.106;2023-12-20T09:13:15;5.93;;;2.83;;
19585;SDS011;9939;49.246;9.106;2023-12-20T09:15:42;5.10;;;2.57;;
19585;SDS011;9939;49.246;9.106;2023-12-20T09:18:10;5.47;;;2.50;;
19585;SDS011;9939;49.246;9.106;2023-12-20T09:20:37;5.30;;;2.20;;
19585;SDS011;9939;49.246;9.106;2023-12-20T09:23:09;5.07;;;2.40;;
19585;SDS011;9939;49.246;9.106;2023-12-20T09:25:36;2.87;;;1.83;;
19585;SDS011;9939;49.246;9.106;2023-12-20T09:28:03;6.23;;;2.23;;
19585;SDS011;9939;49.246;9.106;2023-12-20T09:30:31;7.50;;;2.37;;
19585;SDS011;9939;49.246;9.106;2023-12-20T09:32:58;4.97;;;2.30;;
19585;SDS011;9939;49.246;9.106;2023-12-20T09:35:25;4.77;;;2.30;;
19585;SDS011;9939;49.246;9.106;2023-12-20T09:37:53;5.43;;;2.30;;
19585;SDS011;9939;49.246;9.106;2023-12-20T09:40:20;5.50;;;2.20;;
19585;SDS011;9939;49.246;9.106;2023-12-20T09:42:59;7.87;;;2.40;;
19585;SDS011;9939;49.246;9.106;2023-12-20T09:45:31;6.47;;;2.30;;
19585;SDS011;9939;49.246;9.106;2023-12-20T09:47:59;8.03;;;2.70;;
19585;SDS011;9939;49.246;9.106;2023-12-20T09:50:26;7.43;;;2.70;;
19585;SDS011;9939;49.246;9.106;2023-12-20T09:52:54;6.03;;;2.50;;
19585;SDS011;9939;49.246;9.106;2023-12-20T09:55:25;5.70;;;2.43;;
19585;SDS011;9939;49.246;9.106;2023-12-20T09:57:54;5.43;;;2.30;;
19585;SDS011;9939;49.246;9.106;2023-12-20T10:00:21;6.63;;;2.10;;
19585;SDS011;9939;49.246;9.106;2023-12-20T10:02:58;4.13;;;2.00;;
19585;SDS011;9939;49.246;9.106;2023-12-20T10:05:32;6.43;;;2.37;;
19585;SDS011;9939;49.246;9.106;2023-12-20T10:08:01;7.47;;;2.43;;
19585;SDS011;9939;49.246;9.106;2023-12-20T10:10:30;7.53;;;3.03;;
19585;SDS011;9939;49.246;9.106;2023-12-20T10:13:11;9.43;;;3.13;;
19585;SDS011;9939;49.246;9.106;2023-12-20T10:15:40;8.63;;;3.17;;
19585;SDS011;9939;49.246;9.106;2023-12-20T10:18:08;10.03;;;2.80;;
19585;SDS011;9939;49.246;9.106;2023-12-20T10:20:36;7.23;;;2.50;;
19585;SDS011;9939;49.246;9.106;2023-12-20T10:23:03;11.30;;;2.60;;
19585;SDS011;9939;49.246;9.106;2023-12-20T10:25:30;7.07;;;2.60;;
19585;SDS011;9939;49.246;9.106;2023-12-20T10:28:14;9.33;;;2.87;;
19585;SDS011;9939;49.246;9.106;2023-12-20T10:30:45;6.53;;;2.10;;
19585;SDS011;9939;49.246;9.106;2023-12-20T10:33:13;6.37;;;2.40;;
19585;SDS011;9939;49.246;9.106;2023-12-20T10:35:40;6.67;;;2.03;;
19585;SDS011;9939;49.246;9.106;2023-12-20T10:38:12;6.57;;;2.43;;
19585;SDS011;9939;49.246;9.106;2023-12-20T10:40:41;13.70;;;2.97;;
19585;SDS011;9939;49.246;9.106;2023-12-20T10:43:09;5.83;;;2.17;;
19585;SDS011;9939;49.246;9.106;2023-12-20T10:45:37;8.13;;;2.10;;
19585;SDS011;9939;49.246;9.106;2023-12-20T10:48:04;9.17;;;2.07;;
19585;SDS011;9939;49.246;9.106;2023-12-20T10:50:32;11.23;;;2.20;;
19585;SDS011;9939;49.246;9.106;2023-12-20T10:53:02;14.43;;;2.77;;
19585;SDS011;9939;49.246;9.106;2023-12-20T10:55:30;7.13;;;2.00;;
19585;SDS011;9939;49.246;9.106;2023-12-20T10:58:01;10.17;;;2.20;;
19585;SDS011;9939;49.246;9.106;2023-12-20T11:00:32;8.77;;;1.90;;
19585;SDS011;9939;49.246;9.106;2023-12-20T11:03:05;6.47;;;2.10;;
19585;SDS011;9939;49.246;9.106;2023-12-20T11:05:55;5.97;;;1.60;;
19585;SDS011;9939;49.246;9.106;2023-12-20T11:11:23;10.07;;;2.43;;
19585;SDS011;9939;49.246;9.106;2023-12-20T11:13:58;6.77;;;1.93;;
19585;SDS011;9939;49.246;9.106;2023-12-20T11:16:30;8.80;;;2.40;;
19585;SDS011;9939;49.246;9.106;2023-12-20T11:19:13;9.97;;;1.90;;
19585;SDS011;9939;49.246;9.106;2023-12-20T11:21:41;7.03;;;2.27;;
19585;SDS011;9939;49.246;9.106;2023-12-20T11:24:09;6.17;;;2.03;;
19585;SDS011;9939;49.246;9.106;2023-12-20T11:26:36;7.27;;;1.70;;
19585;SDS011;9939;49.246;9.106;2023-12-20T11:31:56;5.33;;;1.70;;
19585;SDS011;9939;49.246;9.106;2023-12-20T11:34:26;7.13;;;2.63;;
19585;SDS011;9939;49.246;9.106;2023-12-20T11:36:58;8.13;;;1.90;;
19585;SDS011;9939;49.246;9.106;2023-12-20T11:39:26;9.50;;;2.50;;
19585;SDS011;9939;49.246;9.106;2023-12-20T11:41:55;10.77;;;2.30;;
19585;SDS011;9939;49.246;9.106;2023-12-20T11:44:25;8.07;;;2.10;;
19585;SDS011;9939;49.246;9.106;2023-12-20T11:46:53;4.97;;;1.90;;
19585;SDS011;9939;49.246;9.106;2023-12-20T11:49:24;8.90;;;2.87;;
19585;SDS011;9939;49.246;9.106;2023-12-20T11:51:51;8.63;;;2.57;;
19585;SDS011;9939;49.246;9.106;2023-12-20T11:54:19;9.63;;;2.33;;
19585;SDS011;9939;49.246;9.106;2023-12-20T11:56:46;6.20;;;2.13;;
19585;SDS011;9939;49.246;9.106;2023-12-20T11:59:14;8.10;;;2.60;;
19585;SDS011;9939;49.246;9.106;2023-12-20T12:01:52;11.27;;;2.50;;
19585;SDS011;9939;49.246;9.106;2023-12-20T12:04:21;6.67;;;2.07;;
19585;SDS011;9939;49.246;9.106;2023-12-20T12:06:48;12.97;;;3.10;;
19585;SDS011;9939;49.246;9.106;2023-12-20T12:09:16;9.13;;;2.10;;
19585;SDS011;9939;49.246;9.106;2023-12-20T12:11:43;7.43;;;2.03;;
19585;SDS011;9939;49.246;9.106;2023-12-20T12:14:10;7.87;;;2.33;;
19585;SDS011;9939;49.246;9.106;2023-12-20T12:16:38;8.50;;;2.83;;
19585;SDS011;9939;49.246;9.106;2023-12-20T12:19:05;9.00;;;3.20;;
19585;SDS011;9939;49.246;9.106;2023-12-20T12:21:32;11.10;;;2.83;;
19585;SDS011;9939;49.246;9.106;2023-12-20T12:24:06;9.63;;;3.00;;
19585;SDS011;9939;49.246;9.106;2023-12-20T12:26:34;7.90;;;2.40;;
19585;SDS011;9939;49.246;9.106;2023-12-20T12:29:01;9.47;;;2.50;;
19585;SDS011;9939;49.246;9.106;2023-12-20T12:31:28;12.00;;;3.60;;
19585;SDS011;9939;49.246;9.106;2023-12-20T12:33:57;8.03;;;2.60;;
19585;SDS011;9939;49.246;9.106;2023-12-20T12:36:24;9.80;;;2.33;;
19585;SDS011;9939;49.246;9.106;2023-12-20T12:38:51;10.53;;;3.20;;
19585;SDS011;9939;49.246;9.106;2023-12-20T12:41:18;7.43;;;2.90;;
19585;SDS011;9939;49.246;9.106;2023-12-20T12:43:45;9.77;;;2.40;;
19585;SDS011;9939;49.246;9.106;2023-12-20T12:46:12;9.60;;;2.80;;
19585;SDS011;9939;49.246;9.106;2023-12-20T12:48:39;7.90;;;2.80;;
19585;SDS011;9939;49.246;9.106;2023-12-20T12:51:10;9.23;;;2.53;;
19585;SDS011;9939;49.246;9.106;2023-12-20T12:53:40;8.87;;;2.43;;
19585;SDS011;9939;49.246;9.106;2023-12-20T12:56:07;6.53;;;2.93;;
19585;SDS011;9939;49.246;9.106;2023-12-20T12:58:34;7.57;;;2.40;;
19585;SDS011;9939;49.246;9.106;2023-12-20T13:01:01;6.77;;;2.23;;
19585;SDS011;9939;49.246;9.106;2023-12-20T13:03:30;8.23;;;2.50;;
19585;SDS011;9939;49.246;9.106;2023-12-20T13:05:57;9.13;;;2.63;;
19585;SDS011;9939;49.246;9.106;2023-12-20T13:08:25;7.00;;;3.00;;
19585;SDS011;9939;49.246;9.106;2023-12-20T13:10:52;11.97;;;2.63;;
19585;SDS011;9939;49.246;9.106;2023-12-20T13:13:19;6.77;;;2.80;;
19585;SDS011;9939;49.246;9.106;2023-12-20T13:15:46;6.10;;;2.90;;
19585;SDS011;9939;49.246;9.106;2023-12-20T13:18:17;10.03;;;3.33;;
19585;SDS011;9939;49.246;9.106;2023-12-20T13:20:45;4.87;;;2.10;;
19585;SDS011;9939;49.246;9.106;2023-12-20T13:23:12;8.13;;;2.97;;
19585;SDS011;9939;49.246;9.106;2023-12-20T13:25:40;9.33;;;2.83;;
19585;SDS011;9939;49.246;9.106;2023-12-20T13:28:07;13.13;;;3.33;;
19585;SDS011;9939;49.246;9.106;2023-12-20T13:30:35;15.50;;;3.47;;
19585;SDS011;9939;49.246;9.106;2023-12-20T13:33:02;10.07;;;2.87;;
19585;SDS011;9939;49.246;9.106;2023-12-20T13:35:29;11.17;;;2.87;;
19585;SDS011;9939;49.246;9.106;2023-12-20T13:37:57;8.27;;;2.77;;
19585;SDS011;9939;49.246;9.106;2023-12-20T13:40:25;11.53;;;2.67;;
19585;SDS011;9939;49.246;9.106;2023-12-20T13:42:52;12.20;;;2.47;;
19585;SDS011;9939;49.246;9.106;2023-12-20T13:45:21;7.77;;;3.10;;
19585;SDS011;9939;49.246;9.106;2023-12-20T13:47:48;10.60;;;3.00;;
19585;SDS011;9939;49.246;9.106;2023-12-20T13:50:16;14.13;;;2.97;;
19585;SDS011;9939;49.246;9.106;2023-12-20T13:52:43;6.90;;;2.93;;
19585;SDS011;9939;49.246;9.106;2023-12-20T13:55:10;10.33;;;2.80;;
19585;SDS011;9939;49.246;9.106;2023-12-20T13:57:37;10.17;;;3.20;;
19585;SDS011;9939;49.246;9.106;2023-12-20T14:00:09;14.00;;;3.43;;
19585;SDS011;9939;49.246;9.106;2023-12-20T14:02:41;10.03;;;3.20;;
19585;SDS011;9939;49.246;9.106;2023-12-20T14:05:09;15.43;;;3.63;;
19585;SDS011;9939;49.246;9.106;2023-12-20T14:07:37;13.03;;;3.83;;
19585;SDS011;9939;49.246;9.106;2023-12-20T14:10:04;13.50;;;4.30;;
19585;SDS011;9939;49.246;9.106;2023-12-20T14:12:32;12.37;;;3.93;;
19585;SDS011;9939;49.246;9.106;2023-12-20T14:15:02;8.67;;;3.33;;
19585;SDS011;9939;49.246;9.106;2023-12-20T14:17:30;9.23;;;3.60;;
19585;SDS011;9939;49.246;9.106;2023-12-20T14:19:58;12.97;;;3.40;;
19585;SDS011;9939;49.246;9.106;2023-12-20T14:22:25;8.43;;;3.00;;
19585;SDS011;9939;49.246;9.106;2023-12-20T14:24:53;6.53;;;2.80;;
19585;SDS011;9939;49.246;9.106;2023-12-20T14:27:20;10.33;;;3.23;;
19585;SDS011;9939;49.246;9.106;2023-12-20T14:29:50;11.93;;;3.30;;
19585;SDS011;9939;49.246;9.106;2023-12-20T14:32:17;9.60;;;3.20;;
19585;SDS011;9939;49.246;9.106;2023-12-20T14:34:45;10.20;;;3.37;;
19585;SDS011;9939;49.246;9.106;2023-12-20T14:37:12;12.90;;;3.50;;
19585;SDS011;9939;49.246;9.106;2023-12-20T14:39:39;14.73;;;3.77;;
19585;SDS011;9939;49.246;9.106;2023-12-20T14:42:08;10.17;;;3.43;;
19585;SDS011;9939;49.246;9.106;2023-12-20T14:44:38;13.00;;;3.27;;
19585;SDS011;9939;49.246;9.106;2023-12-20T14:47:08;10.50;;;3.23;;
19585;SDS011;9939;49.246;9.106;2023-12-20T14:49:35;13.77;;;4.23;;
19585;SDS011;9939;49.246;9.106;2023-12-20T14:52:04;11.97;;;3.13;;
19585;SDS011;9939;49.246;9.106;2023-12-20T14:54:31;11.70;;;3.33;;
19585;SDS011;9939;49.246;9.106;2023-12-20T14:56:59;10.43;;;2.87;;
19585;SDS011;9939;49.246;9.106;2023-12-20T14:59:31;8.50;;;2.53;;
19585;SDS011;9939;49.246;9.106;2023-12-20T15:01:59;9.17;;;3.13;;
19585;SDS011;9939;49.246;9.106;2023-12-20T15:04:26;13.93;;;3.23;;